sensor_id;sensor_type;location;lat;lon;timestamp;P1;durP1;ratioP1;P2;durP2;ratioP2
10725;SDS011;5414;59.782;16.378;2023-05-14T00:01:40;5.47;;;5.00;;
10725;SDS011;5414;59.782;16.378;2023-05-14T00:04:06;5.47;;;4.97;;
10725;SDS011;5414;59.782;16.378;2023-05-14T00:06:32;5.47;;;5.00;;
10725;SDS011;5414;59.782;16.378;2023-05-14T00:08:58;5.50;;;5.00;;
10725;SDS011;5414;59.782;16.378;2023-05-14T00:11:24;5.33;;;4.83;;
10725;SDS011;5414;59.782;16.378;2023-05-14T00:13:50;5.30;;;4.90;;
10725;SDS011;5414;59.782;16.378;2023-05-14T00:16:16;6.37;;;5.87;;
10725;SDS011;5414;59.782;16.378;2023-05-14T00:18:42;5.97;;;4.93;;
10725;SDS011;5414;59.782;16.378;2023-05-14T00:21:08;5.50;;;5.10;;
10725;SDS011;5414;59.782;16.378;2023-05-14T00:23:34;5.23;;;4.80;;
10725;SDS011;5414;59.782;16.378;2023-05-14T00:26:00;5.43;;;5.03;;
10725;SDS011;5414;59.782;16.378;2023-05-14T00:28:26;5.13;;;4.73;;
10725;SDS011;5414;59.782;16.378;2023-05-14T00:30:52;5.30;;;4.80;;
10725;SDS011;5414;59.782;16.378;2023-05-14T00:33:19;5.13;;;4.73;;
10725;SDS011;5414;59.782;16.378;2023-05-14T00:35:45;5.40;;;4.90;;
10725;SDS011;5414;59.782;16.378;2023-05-14T00:38:11;5.77;;;5.27;;
10725;SDS011;5414;59.782;16.378;2023-05-14T00:40:41;5.47;;;5.07;;
10725;SDS011;5414;59.782;16.378;2023-05-14T00:43:09;5.60;;;5.13;;
10725;SDS011;5414;59.782;16.378;2023-05-14T00:45:36;5.00;;;4.60;;
10725;SDS011;5414;59.782;16.378;2023-05-14T00:48:02;5.57;;;5.07;;
10725;SDS011;5414;59.782;16.378;2023-05-14T00:50:28;5.30;;;4.90;;
10725;SDS011;5414;59.782;16.378;2023-05-14T00:52:54;5.37;;;4.97;;
10725;SDS011;5414;59.782;16.378;2023-05-14T00:55:20;5.47;;;5.07;;
10725;SDS011;5414;59.782;16.378;2023-05-14T00:57:46;6.63;;;5.27;;
10725;SDS011;5414;59.782;16.378;2023-05-14T01:00:13;5.97;;;5.27;;
10725;SDS011;5414;59.782;16.378;2023-05-14T01:02:39;7.10;;;6.50;;
10725;SDS011;5414;59.782;16.378;2023-05-14T01:05:05;5.97;;;5.47;;
10725;SDS011;5414;59.782;16.378;2023-05-14T01:10:04;6.43;;;5.70;;
10725;SDS011;5414;59.782;16.378;2023-05-14T01:12:37;6.00;;;5.47;;
10725;SDS011;5414;59.782;16.378;2023-05-14T01:15:14;5.37;;;4.93;;
10725;SDS011;5414;59.782;16.378;2023-05-14T01:17:51;5.80;;;5.30;;
10725;SDS011;5414;59.782;16.378;2023-05-14T01:20:19;5.90;;;5.30;;
10725;SDS011;5414;59.782;16.378;2023-05-14T01:22:45;5.93;;;5.33;;
10725;SDS011;5414;59.782;16.378;2023-05-14T01:25:11;6.63;;;5.50;;
10725;SDS011;5414;59.782;16.378;2023-05-14T01:27:40;5.50;;;5.10;;
10725;SDS011;5414;59.782;16.378;2023-05-14T01:30:09;5.70;;;5.20;;
10725;SDS011;5414;59.782;16.378;2023-05-14T01:32:37;6.40;;;5.80;;
10725;SDS011;5414;59.782;16.378;2023-05-14T01:35:04;5.33;;;4.93;;
10725;SDS011;5414;59.782;16.378;2023-05-14T01:37:31;5.57;;;5.07;;
10725;SDS011;5414;59.782;16.378;2023-05-14T01:39:57;6.50;;;5.90;;
10725;SDS011;5414;59.782;16.378;2023-05-14T01:42:23;6.40;;;5.27;;
10725;SDS011;5414;59.782;16.378;2023-05-14T01:44:50;5.87;;;5.37;;
10725;SDS011;5414;59.782;16.378;2023-05-14T01:47:16;7.47;;;5.63;;
10725;SDS011;5414;59.782;16.378;2023-05-14T01:49:42;6.17;;;5.60;;
10725;SDS011;5414;59.782;16.378;2023-05-14T01:52:08;6.00;;;5.50;;
10725;SDS011;5414;59.782;16.378;2023-05-14T01:54:34;5.87;;;5.37;;
10725;SDS011;5414;59.782;16.378;2023-05-14T01:57:00;5.70;;;5.30;;
10725;SDS011;5414;59.782;16.378;2023-05-14T01:59:26;5.43;;;5.07;;
10725;SDS011;5414;59.782;16.378;2023-05-14T02:01:53;5.67;;;5.17;;
10725;SDS011;5414;59.782;16.378;2023-05-14T02:04:20;6.70;;;5.00;;
10725;SDS011;5414;59.782;16.378;2023-05-14T02:06:46;5.93;;;5.40;;
10725;SDS011;5414;59.782;16.378;2023-05-14T02:09:12;5.77;;;5.27;;
10725;SDS011;5414;59.782;16.378;2023-05-14T02:11:38;5.60;;;5.20;;
10725;SDS011;5414;59.782;16.378;2023-05-14T02:14:04;5.90;;;5.40;;
10725;SDS011;5414;59.782;16.378;2023-05-14T02:16:30;6.43;;;5.83;;
10725;SDS011;5414;59.782;16.378;2023-05-14T02:18:56;5.40;;;5.00;;
10725;SDS011;5414;59.782;16.378;2023-05-14T02:21:22;6.30;;;5.70;;
10725;SDS011;5414;59.782;16.378;2023-05-14T02:23:48;5.63;;;5.23;;
10725;SDS011;5414;59.782;16.378;2023-05-14T02:26:15;5.53;;;5.13;;
10725;SDS011;5414;59.782;16.378;2023-05-14T02:28:41;6.30;;;5.73;;
10725;SDS011;5414;59.782;16.378;2023-05-14T02:31:07;5.70;;;5.20;;
10725;SDS011;5414;59.782;16.378;2023-05-14T02:33:33;6.10;;;5.50;;
10725;SDS011;5414;59.782;16.378;2023-05-14T02:35:59;6.10;;;5.57;;
10725;SDS011;5414;59.782;16.378;2023-05-14T02:38:25;6.23;;;5.73;;
10725;SDS011;5414;59.782;16.378;2023-05-14T02:40:51;5.53;;;5.13;;
10725;SDS011;5414;59.782;16.378;2023-05-14T02:43:17;6.53;;;6.03;;
10725;SDS011;5414;59.782;16.378;2023-05-14T02:45:43;5.90;;;5.40;;
10725;SDS011;5414;59.782;16.378;2023-05-14T02:48:09;6.40;;;5.80;;
10725;SDS011;5414;59.782;16.378;2023-05-14T02:50:35;6.17;;;5.67;;
10725;SDS011;5414;59.782;16.378;2023-05-14T02:53:01;5.80;;;5.30;;
10725;SDS011;5414;59.782;16.378;2023-05-14T02:55:27;5.63;;;5.23;;
10725;SDS011;5414;59.782;16.378;2023-05-14T02:57:53;6.13;;;5.63;;
10725;SDS011;5414;59.782;16.378;2023-05-14T03:00:20;6.37;;;5.70;;
10725;SDS011;5414;59.782;16.378;2023-05-14T03:02:46;6.00;;;5.40;;
10725;SDS011;5414;59.782;16.378;2023-05-14T03:05:12;5.70;;;5.30;;
10725;SDS011;5414;59.782;16.378;2023-05-14T03:07:38;5.70;;;5.30;;
10725;SDS011;5414;59.782;16.378;2023-05-14T03:10:04;6.70;;;6.10;;
10725;SDS011;5414;59.782;16.378;2023-05-14T03:12:31;6.10;;;5.60;;
10725;SDS011;5414;59.782;16.378;2023-05-14T03:14:57;5.90;;;5.40;;
10725;SDS011;5414;59.782;16.378;2023-05-14T03:17:22;5.50;;;5.10;;
10725;SDS011;5414;59.782;16.378;2023-05-14T03:19:48;7.43;;;6.53;;
10725;SDS011;5414;59.782;16.378;2023-05-14T03:22:14;6.73;;;6.23;;
10725;SDS011;5414;59.782;16.378;2023-05-14T03:24:40;6.23;;;5.73;;
10725;SDS011;5414;59.782;16.378;2023-05-14T03:27:07;6.60;;;6.10;;
10725;SDS011;5414;59.782;16.378;2023-05-14T03:29:33;6.87;;;6.20;;
10725;SDS011;5414;59.782;16.378;2023-05-14T03:31:59;7.77;;;7.00;;
10725;SDS011;5414;59.782;16.378;2023-05-14T03:34:25;6.97;;;6.47;;
10725;SDS011;5414;59.782;16.378;2023-05-14T03:36:51;7.37;;;6.17;;
10725;SDS011;5414;59.782;16.378;2023-05-14T03:39:17;6.50;;;5.97;;
10725;SDS011;5414;59.782;16.378;2023-05-14T03:41:44;7.80;;;7.00;;
10725;SDS011;5414;59.782;16.378;2023-05-14T03:44:10;8.27;;;7.57;;
10725;SDS011;5414;59.782;16.378;2023-05-14T03:46:36;8.07;;;7.37;;
10725;SDS011;5414;59.782;16.378;2023-05-14T03:49:03;8.27;;;7.47;;
10725;SDS011;5414;59.782;16.378;2023-05-14T03:51:29;8.17;;;7.47;;
10725;SDS011;5414;59.782;16.378;2023-05-14T03:53:55;7.63;;;7.07;;
10725;SDS011;5414;59.782;16.378;2023-05-14T03:56:22;7.47;;;6.77;;
10725;SDS011;5414;59.782;16.378;2023-05-14T03:58:48;7.63;;;7.03;;
10725;SDS011;5414;59.782;16.378;2023-05-14T04:01:14;8.20;;;7.50;;
10725;SDS011;5414;59.782;16.378;2023-05-14T04:03:40;7.83;;;7.20;;
10725;SDS011;5414;59.782;16.378;2023-05-14T04:06:06;8.37;;;7.57;;
10725;SDS011;5414;59.782;16.378;2023-05-14T04:08:32;8.70;;;7.53;;
10725;SDS011;5414;59.782;16.378;2023-05-14T04:10:58;8.80;;;8.00;;
10725;SDS011;5414;59.782;16.378;2023-05-14T04:13:24;9.70;;;7.77;;
10725;SDS011;5414;59.782;16.378;2023-05-14T04:15:50;8.30;;;7.47;;
10725;SDS011;5414;59.782;16.378;2023-05-14T04:18:17;7.97;;;7.17;;
10725;SDS011;5414;59.782;16.378;2023-05-14T04:20:43;8.17;;;7.47;;
10725;SDS011;5414;59.782;16.378;2023-05-14T04:23:09;7.80;;;7.20;;
10725;SDS011;5414;59.782;16.378;2023-05-14T04:25:35;8.13;;;7.33;;
10725;SDS011;5414;59.782;16.378;2023-05-14T04:28:01;8.13;;;7.53;;
10725;SDS011;5414;59.782;16.378;2023-05-14T04:30:27;7.87;;;7.17;;
10725;SDS011;5414;59.782;16.378;2023-05-14T04:32:53;8.57;;;7.77;;
10725;SDS011;5414;59.782;16.378;2023-05-14T04:35:19;8.20;;;7.50;;
10725;SDS011;5414;59.782;16.378;2023-05-14T04:37:46;7.87;;;7.20;;
10725;SDS011;5414;59.782;16.378;2023-05-14T04:40:13;8.73;;;7.60;;
10725;SDS011;5414;59.782;16.378;2023-05-14T04:42:41;8.27;;;7.57;;
10725;SDS011;5414;59.782;16.378;2023-05-14T04:45:08;8.10;;;7.40;;
10725;SDS011;5414;59.782;16.378;2023-05-14T04:47:34;8.40;;;7.60;;
10725;SDS011;5414;59.782;16.378;2023-05-14T04:50:00;8.37;;;7.30;;
10725;SDS011;5414;59.782;16.378;2023-05-14T04:52:26;8.77;;;7.60;;
10725;SDS011;5414;59.782;16.378;2023-05-14T04:54:52;9.10;;;7.67;;
10725;SDS011;5414;59.782;16.378;2023-05-14T04:57:19;8.93;;;7.70;;
10725;SDS011;5414;59.782;16.378;2023-05-14T04:59:45;8.57;;;7.77;;
10725;SDS011;5414;59.782;16.378;2023-05-14T05:02:11;8.00;;;7.30;;
10725;SDS011;5414;59.782;16.378;2023-05-14T05:04:37;8.13;;;7.33;;
10725;SDS011;5414;59.782;16.378;2023-05-14T05:07:03;8.07;;;7.37;;
10725;SDS011;5414;59.782;16.378;2023-05-14T05:09:30;8.63;;;7.60;;
10725;SDS011;5414;59.782;16.378;2023-05-14T05:11:56;7.73;;;7.13;;
10725;SDS011;5414;59.782;16.378;2023-05-14T05:14:22;9.30;;;7.00;;
10725;SDS011;5414;59.782;16.378;2023-05-14T05:16:49;7.93;;;7.10;;
10725;SDS011;5414;59.782;16.378;2023-05-14T05:19:15;7.77;;;7.07;;
10725;SDS011;5414;59.782;16.378;2023-05-14T05:21:41;8.53;;;7.30;;
10725;SDS011;5414;59.782;16.378;2023-05-14T05:24:07;7.60;;;6.93;;
10725;SDS011;5414;59.782;16.378;2023-05-14T05:26:33;7.40;;;6.70;;
10725;SDS011;5414;59.782;16.378;2023-05-14T05:29:02;7.60;;;6.70;;
10725;SDS011;5414;59.782;16.378;2023-05-14T05:31:29;7.30;;;6.70;;
10725;SDS011;5414;59.782;16.378;2023-05-14T05:33:55;7.17;;;6.47;;
10725;SDS011;5414;59.782;16.378;2023-05-14T05:36:21;7.20;;;6.50;;
10725;SDS011;5414;59.782;16.378;2023-05-14T05:38:47;7.33;;;6.50;;
10725;SDS011;5414;59.782;16.378;2023-05-14T05:41:13;7.07;;;6.47;;
10725;SDS011;5414;59.782;16.378;2023-05-14T05:43:39;7.30;;;6.60;;
10725;SDS011;5414;59.782;16.378;2023-05-14T05:46:05;6.80;;;6.20;;
10725;SDS011;5414;59.782;16.378;2023-05-14T05:48:31;7.40;;;6.70;;
10725;SDS011;5414;59.782;16.378;2023-05-14T05:50:57;6.67;;;6.07;;
10725;SDS011;5414;59.782;16.378;2023-05-14T05:53:23;7.23;;;6.67;;
10725;SDS011;5414;59.782;16.378;2023-05-14T05:55:50;7.00;;;6.10;;
10725;SDS011;5414;59.782;16.378;2023-05-14T05:58:19;6.07;;;5.57;;
10725;SDS011;5414;59.782;16.378;2023-05-14T06:00:45;6.10;;;5.47;;
10725;SDS011;5414;59.782;16.378;2023-05-14T06:03:12;7.93;;;5.97;;
10725;SDS011;5414;59.782;16.378;2023-05-14T06:05:38;6.60;;;6.07;;
10725;SDS011;5414;59.782;16.378;2023-05-14T06:08:04;8.07;;;6.00;;
10725;SDS011;5414;59.782;16.378;2023-05-14T06:10:30;6.87;;;6.23;;
10725;SDS011;5414;59.782;16.378;2023-05-14T06:12:58;6.97;;;6.00;;
10725;SDS011;5414;59.782;16.378;2023-05-14T06:15:23;6.17;;;5.60;;
10725;SDS011;5414;59.782;16.378;2023-05-14T06:17:49;6.23;;;5.70;;
10725;SDS011;5414;59.782;16.378;2023-05-14T06:20:15;6.30;;;5.70;;
10725;SDS011;5414;59.782;16.378;2023-05-14T06:22:41;6.03;;;5.53;;
10725;SDS011;5414;59.782;16.378;2023-05-14T06:25:06;5.87;;;5.37;;
10725;SDS011;5414;59.782;16.378;2023-05-14T06:27:32;5.87;;;5.37;;
10725;SDS011;5414;59.782;16.378;2023-05-14T06:29:58;6.00;;;5.40;;
10725;SDS011;5414;59.782;16.378;2023-05-14T06:32:24;5.47;;;5.07;;
10725;SDS011;5414;59.782;16.378;2023-05-14T06:34:49;5.43;;;4.93;;
10725;SDS011;5414;59.782;16.378;2023-05-14T06:37:15;6.20;;;5.60;;
10725;SDS011;5414;59.782;16.378;2023-05-14T06:39:41;5.90;;;5.33;;
10725;SDS011;5414;59.782;16.378;2023-05-14T06:42:14;5.90;;;5.30;;
10725;SDS011;5414;59.782;16.378;2023-05-14T06:44:40;5.63;;;5.13;;
10725;SDS011;5414;59.782;16.378;2023-05-14T06:47:06;5.13;;;4.73;;
10725;SDS011;5414;59.782;16.378;2023-05-14T06:49:32;5.30;;;4.80;;
10725;SDS011;5414;59.782;16.378;2023-05-14T06:51:59;5.87;;;5.37;;
10725;SDS011;5414;59.782;16.378;2023-05-14T06:54:24;5.40;;;4.90;;
10725;SDS011;5414;59.782;16.378;2023-05-14T06:56:50;8.70;;;5.47;;
10725;SDS011;5414;59.782;16.378;2023-05-14T06:59:16;6.70;;;5.47;;
10725;SDS011;5414;59.782;16.378;2023-05-14T07:01:41;5.90;;;5.20;;
10725;SDS011;5414;59.782;16.378;2023-05-14T07:04:07;7.77;;;5.10;;
10725;SDS011;5414;59.782;16.378;2023-05-14T07:06:33;6.13;;;5.53;;
10725;SDS011;5414;59.782;16.378;2023-05-14T07:08:59;5.60;;;5.10;;
10725;SDS011;5414;59.782;16.378;2023-05-14T07:11:25;5.50;;;5.10;;
10725;SDS011;5414;59.782;16.378;2023-05-14T07:13:51;6.67;;;4.70;;
10725;SDS011;5414;59.782;16.378;2023-05-14T07:16:17;5.40;;;4.90;;
10725;SDS011;5414;59.782;16.378;2023-05-14T07:18:43;6.60;;;4.40;;
10725;SDS011;5414;59.782;16.378;2023-05-14T07:21:09;5.83;;;4.37;;
10725;SDS011;5414;59.782;16.378;2023-05-14T07:23:35;5.20;;;4.70;;
10725;SDS011;5414;59.782;16.378;2023-05-14T07:26:03;6.20;;;4.73;;
10725;SDS011;5414;59.782;16.378;2023-05-14T07:28:29;5.27;;;4.77;;
10725;SDS011;5414;59.782;16.378;2023-05-14T07:30:55;5.10;;;4.70;;
10725;SDS011;5414;59.782;16.378;2023-05-14T07:33:21;4.67;;;4.27;;
10725;SDS011;5414;59.782;16.378;2023-05-14T07:35:47;5.00;;;4.53;;
10725;SDS011;5414;59.782;16.378;2023-05-14T07:38:12;5.70;;;4.60;;
10725;SDS011;5414;59.782;16.378;2023-05-14T07:40:39;7.63;;;4.60;;
10725;SDS011;5414;59.782;16.378;2023-05-14T07:43:04;5.43;;;4.93;;
10725;SDS011;5414;59.782;16.378;2023-05-14T07:45:30;6.23;;;4.60;;
10725;SDS011;5414;59.782;16.378;2023-05-14T07:47:56;5.20;;;4.70;;
10725;SDS011;5414;59.782;16.378;2023-05-14T07:50:21;8.60;;;4.83;;
10725;SDS011;5414;59.782;16.378;2023-05-14T07:52:47;5.27;;;4.77;;
10725;SDS011;5414;59.782;16.378;2023-05-14T07:55:13;4.73;;;4.43;;
10725;SDS011;5414;59.782;16.378;2023-05-14T07:57:38;5.20;;;4.70;;
10725;SDS011;5414;59.782;16.378;2023-05-14T08:00:04;5.27;;;4.80;;
10725;SDS011;5414;59.782;16.378;2023-05-14T08:02:33;5.47;;;4.37;;
10725;SDS011;5414;59.782;16.378;2023-05-14T08:04:59;5.23;;;4.10;;
10725;SDS011;5414;59.782;16.378;2023-05-14T08:07:25;5.63;;;3.97;;
10725;SDS011;5414;59.782;16.378;2023-05-14T08:09:53;5.60;;;4.23;;
10725;SDS011;5414;59.782;16.378;2023-05-14T08:12:19;4.70;;;4.20;;
10725;SDS011;5414;59.782;16.378;2023-05-14T08:14:44;4.73;;;4.27;;
10725;SDS011;5414;59.782;16.378;2023-05-14T08:17:10;4.40;;;3.93;;
10725;SDS011;5414;59.782;16.378;2023-05-14T08:19:36;4.97;;;4.50;;
10725;SDS011;5414;59.782;16.378;2023-05-14T08:22:02;6.13;;;4.50;;
10725;SDS011;5414;59.782;16.378;2023-05-14T08:24:28;5.77;;;4.50;;
10725;SDS011;5414;59.782;16.378;2023-05-14T08:26:53;5.13;;;4.60;;
10725;SDS011;5414;59.782;16.378;2023-05-14T08:29:20;5.67;;;4.67;;
10725;SDS011;5414;59.782;16.378;2023-05-14T08:31:45;4.97;;;4.00;;
10725;SDS011;5414;59.782;16.378;2023-05-14T08:34:12;5.77;;;4.20;;
10725;SDS011;5414;59.782;16.378;2023-05-14T08:36:38;6.30;;;4.37;;
10725;SDS011;5414;59.782;16.378;2023-05-14T08:39:03;4.40;;;3.93;;
10725;SDS011;5414;59.782;16.378;2023-05-14T08:41:31;6.30;;;4.20;;
10725;SDS011;5414;59.782;16.378;2023-05-14T08:46:39;4.82;;;4.43;;
10725;SDS011;5414;59.782;16.378;2023-05-14T08:49:20;7.93;;;5.03;;
10725;SDS011;5414;59.782;16.378;2023-05-14T08:52:05;4.47;;;4.07;;
10725;SDS011;5414;59.782;16.378;2023-05-14T08:54:32;4.93;;;3.95;;
10725;SDS011;5414;59.782;16.378;2023-05-14T08:56:58;5.15;;;4.72;;
10725;SDS011;5414;59.782;16.378;2023-05-14T08:59:24;6.47;;;4.32;;
10725;SDS011;5414;59.782;16.378;2023-05-14T09:01:51;8.57;;;4.40;;
10725;SDS011;5414;59.782;16.378;2023-05-14T09:04:18;4.55;;;4.10;;
10725;SDS011;5414;59.782;16.378;2023-05-14T09:06:48;5.85;;;4.53;;
10725;SDS011;5414;59.782;16.378;2023-05-14T09:09:15;4.45;;;4.00;;
10725;SDS011;5414;59.782;16.378;2023-05-14T09:11:41;4.65;;;4.25;;
10725;SDS011;5414;59.782;16.378;2023-05-14T09:14:09;7.25;;;4.40;;
10725;SDS011;5414;59.782;16.378;2023-05-14T09:16:35;5.95;;;4.50;;
10725;SDS011;5414;59.782;16.378;2023-05-14T09:19:03;4.47;;;3.80;;
10725;SDS011;5414;59.782;16.378;2023-05-14T09:21:30;4.70;;;4.20;;
10725;SDS011;5414;59.782;16.378;2023-05-14T09:23:56;4.80;;;4.18;;
10725;SDS011;5414;59.782;16.378;2023-05-14T09:26:23;4.70;;;4.30;;
10725;SDS011;5414;59.782;16.378;2023-05-14T09:28:52;4.88;;;4.40;;
10725;SDS011;5414;59.782;16.378;2023-05-14T09:31:21;5.65;;;4.38;;
10725;SDS011;5414;59.782;16.378;2023-05-14T09:33:51;6.03;;;4.30;;
10725;SDS011;5414;59.782;16.378;2023-05-14T09:36:17;5.00;;;4.47;;
10725;SDS011;5414;59.782;16.378;2023-05-14T09:38:43;6.63;;;4.10;;
10725;SDS011;5414;59.782;16.378;2023-05-14T09:41:09;7.45;;;4.57;;
10725;SDS011;5414;59.782;16.378;2023-05-14T09:43:35;5.13;;;4.22;;
10725;SDS011;5414;59.782;16.378;2023-05-14T09:46:00;4.65;;;4.22;;
10725;SDS011;5414;59.782;16.378;2023-05-14T09:48:26;4.32;;;4.00;;
10725;SDS011;5414;59.782;16.378;2023-05-14T09:50:52;5.20;;;4.65;;
10725;SDS011;5414;59.782;16.378;2023-05-14T09:53:18;4.82;;;4.38;;
10725;SDS011;5414;59.782;16.378;2023-05-14T09:55:44;5.28;;;4.55;;
10725;SDS011;5414;59.782;16.378;2023-05-14T09:58:10;5.28;;;4.22;;
10725;SDS011;5414;59.782;16.378;2023-05-14T10:00:37;5.20;;;4.22;;
10725;SDS011;5414;59.782;16.378;2023-05-14T10:03:06;7.30;;;4.68;;
10725;SDS011;5414;59.782;16.378;2023-05-14T10:05:35;6.28;;;4.50;;
10725;SDS011;5414;59.782;16.378;2023-05-14T10:08:21;4.47;;;4.00;;
10725;SDS011;5414;59.782;16.378;2023-05-14T10:10:51;4.47;;;4.07;;
10725;SDS011;5414;59.782;16.378;2023-05-14T10:13:19;3.85;;;3.55;;
10725;SDS011;5414;59.782;16.378;2023-05-14T10:15:48;4.18;;;3.78;;
10725;SDS011;5414;59.782;16.378;2023-05-14T10:18:23;3.97;;;3.67;;
10725;SDS011;5414;59.782;16.378;2023-05-14T10:20:56;4.13;;;3.83;;
10725;SDS011;5414;59.782;16.378;2023-05-14T10:23:27;4.15;;;3.63;;
10725;SDS011;5414;59.782;16.378;2023-05-14T10:25:54;4.30;;;3.90;;
10725;SDS011;5414;59.782;16.378;2023-05-14T10:28:22;4.88;;;3.80;;
10725;SDS011;5414;59.782;16.378;2023-05-14T10:30:48;3.70;;;3.40;;
10725;SDS011;5414;59.782;16.378;2023-05-14T10:33:15;4.30;;;3.90;;
10725;SDS011;5414;59.782;16.378;2023-05-14T10:35:55;3.72;;;3.28;;
10725;SDS011;5414;59.782;16.378;2023-05-14T10:38:33;3.70;;;3.40;;
10725;SDS011;5414;59.782;16.378;2023-05-14T10:43:42;3.30;;;3.00;;
10725;SDS011;5414;59.782;16.378;2023-05-14T10:46:09;5.90;;;3.58;;
10725;SDS011;5414;59.782;16.378;2023-05-14T10:48:38;5.55;;;3.70;;
10725;SDS011;5414;59.782;16.378;2023-05-14T10:51:10;5.68;;;4.40;;
10725;SDS011;5414;59.782;16.378;2023-05-14T10:53:40;3.90;;;3.60;;
10725;SDS011;5414;59.782;16.378;2023-05-14T10:56:10;3.47;;;3.28;;
10725;SDS011;5414;59.782;16.378;2023-05-14T10:58:37;3.33;;;3.13;;
10725;SDS011;5414;59.782;16.378;2023-05-14T11:01:05;5.05;;;3.40;;
10725;SDS011;5414;59.782;16.378;2023-05-14T11:03:32;3.47;;;3.17;;
10725;SDS011;5414;59.782;16.378;2023-05-14T11:06:10;3.85;;;3.28;;
10725;SDS011;5414;59.782;16.378;2023-05-14T11:08:38;3.10;;;2.90;;
10725;SDS011;5414;59.782;16.378;2023-05-14T11:11:04;3.83;;;2.90;;
10725;SDS011;5414;59.782;16.378;2023-05-14T11:13:30;3.30;;;3.03;;
10725;SDS011;5414;59.782;16.378;2023-05-14T11:15:58;4.95;;;2.90;;
10725;SDS011;5414;59.782;16.378;2023-05-14T11:18:28;3.30;;;3.00;;
10725;SDS011;5414;59.782;16.378;2023-05-14T11:20:59;3.30;;;3.00;;
10725;SDS011;5414;59.782;16.378;2023-05-14T11:23:25;3.40;;;3.20;;
10725;SDS011;5414;59.782;16.378;2023-05-14T11:25:51;4.22;;;3.40;;
10725;SDS011;5414;59.782;16.378;2023-05-14T11:28:21;3.55;;;3.17;;
10725;SDS011;5414;59.782;16.378;2023-05-14T11:30:48;4.97;;;3.58;;
10725;SDS011;5414;59.782;16.378;2023-05-14T11:33:17;4.10;;;3.70;;
10725;SDS011;5414;59.782;16.378;2023-05-14T11:35:44;6.40;;;3.60;;
10725;SDS011;5414;59.782;16.378;2023-05-14T11:38:19;5.95;;;3.58;;
10725;SDS011;5414;59.782;16.378;2023-05-14T11:40:55;3.85;;;3.55;;
10725;SDS011;5414;59.782;16.378;2023-05-14T11:43:22;4.32;;;3.92;;
10725;SDS011;5414;59.782;16.378;2023-05-14T11:45:48;4.43;;;4.07;;
10725;SDS011;5414;59.782;16.378;2023-05-14T11:48:15;4.30;;;3.60;;
10725;SDS011;5414;59.782;16.378;2023-05-14T11:50:48;4.38;;;3.92;;
10725;SDS011;5414;59.782;16.378;2023-05-14T11:53:18;10.15;;;4.25;;
10725;SDS011;5414;59.782;16.378;2023-05-14T11:55:45;4.45;;;4.00;;
10725;SDS011;5414;59.782;16.378;2023-05-14T11:58:11;4.63;;;3.42;;
10725;SDS011;5414;59.782;16.378;2023-05-14T12:00:37;4.10;;;3.70;;
10725;SDS011;5414;59.782;16.378;2023-05-14T12:03:04;9.43;;;4.35;;
10725;SDS011;5414;59.782;16.378;2023-05-14T12:05:30;10.23;;;4.47;;
10725;SDS011;5414;59.782;16.378;2023-05-14T12:07:56;5.05;;;4.30;;
10725;SDS011;5414;59.782;16.378;2023-05-14T12:10:21;6.18;;;4.03;;
10725;SDS011;5414;59.782;16.378;2023-05-14T12:12:47;5.00;;;3.70;;
10725;SDS011;5414;59.782;16.378;2023-05-14T12:15:13;7.43;;;4.22;;
10725;SDS011;5414;59.782;16.378;2023-05-14T12:17:48;4.80;;;4.20;;
10725;SDS011;5414;59.782;16.378;2023-05-14T12:20:15;4.65;;;4.13;;
10725;SDS011;5414;59.782;16.378;2023-05-14T12:22:41;9.60;;;4.53;;
10725;SDS011;5414;59.782;16.378;2023-05-14T12:25:11;5.88;;;4.10;;
10725;SDS011;5414;59.782;16.378;2023-05-14T12:27:37;5.00;;;4.38;;
10725;SDS011;5414;59.782;16.378;2023-05-14T12:30:04;4.90;;;3.90;;
10725;SDS011;5414;59.782;16.378;2023-05-14T12:32:31;4.80;;;4.20;;
10725;SDS011;5414;59.782;16.378;2023-05-14T12:34:57;6.20;;;4.13;;
10725;SDS011;5414;59.782;16.378;2023-05-14T12:37:25;9.20;;;4.22;;
10725;SDS011;5414;59.782;16.378;2023-05-14T12:39:51;5.88;;;3.70;;
10725;SDS011;5414;59.782;16.378;2023-05-14T12:42:17;4.03;;;3.55;;
10725;SDS011;5414;59.782;16.378;2023-05-14T12:44:42;7.10;;;3.80;;
10725;SDS011;5414;59.782;16.378;2023-05-14T12:47:08;3.92;;;3.63;;
10725;SDS011;5414;59.782;16.378;2023-05-14T12:49:34;3.83;;;3.53;;
10725;SDS011;5414;59.782;16.378;2023-05-14T12:52:00;5.32;;;3.70;;
10725;SDS011;5414;59.782;16.378;2023-05-14T12:54:25;5.07;;;3.78;;
10725;SDS011;5414;59.782;16.378;2023-05-14T12:56:51;3.78;;;3.47;;
10725;SDS011;5414;59.782;16.378;2023-05-14T12:59:17;5.10;;;3.53;;
10725;SDS011;5414;59.782;16.378;2023-05-14T13:01:42;3.75;;;3.42;;
10725;SDS011;5414;59.782;16.378;2023-05-14T13:04:09;4.00;;;3.17;;
10725;SDS011;5414;59.782;16.378;2023-05-14T13:06:38;4.28;;;3.45;;
10725;SDS011;5414;59.782;16.378;2023-05-14T13:09:04;3.30;;;3.10;;
10725;SDS011;5414;59.782;16.378;2023-05-14T13:11:30;6.32;;;3.83;;
10725;SDS011;5414;59.782;16.378;2023-05-14T13:14:02;4.97;;;3.25;;
10725;SDS011;5414;59.782;16.378;2023-05-14T13:16:28;3.97;;;3.58;;
10725;SDS011;5414;59.782;16.378;2023-05-14T13:18:54;3.47;;;3.28;;
10725;SDS011;5414;59.782;16.378;2023-05-14T13:21:20;3.60;;;3.05;;
10725;SDS011;5414;59.782;16.378;2023-05-14T13:23:46;4.63;;;4.03;;
10725;SDS011;5414;59.782;16.378;2023-05-14T13:26:12;4.93;;;3.57;;
10725;SDS011;5414;59.782;16.378;2023-05-14T13:28:38;3.50;;;3.30;;
10725;SDS011;5414;59.782;16.378;2023-05-14T13:31:05;6.25;;;3.45;;
10725;SDS011;5414;59.782;16.378;2023-05-14T13:33:33;15.25;;;3.78;;
10725;SDS011;5414;59.782;16.378;2023-05-14T13:36:00;6.60;;;3.90;;
10725;SDS011;5414;59.782;16.378;2023-05-14T13:38:27;10.20;;;3.70;;
10725;SDS011;5414;59.782;16.378;2023-05-14T13:40:53;28.75;;;4.90;;
10725;SDS011;5414;59.782;16.378;2023-05-14T13:43:21;12.87;;;3.77;;
10725;SDS011;5414;59.782;16.378;2023-05-14T13:45:47;10.80;;;3.47;;
10725;SDS011;5414;59.782;16.378;2023-05-14T13:48:13;5.72;;;3.35;;
10725;SDS011;5414;59.782;16.378;2023-05-14T13:50:39;11.43;;;4.03;;
10725;SDS011;5414;59.782;16.378;2023-05-14T13:53:05;5.07;;;3.50;;
10725;SDS011;5414;59.782;16.378;2023-05-14T13:55:30;6.77;;;3.80;;
10725;SDS011;5414;59.782;16.378;2023-05-14T13:57:56;5.43;;;3.93;;
10725;SDS011;5414;59.782;16.378;2023-05-14T14:00:23;4.23;;;3.87;;
10725;SDS011;5414;59.782;16.378;2023-05-14T14:02:49;30.80;;;5.00;;
10725;SDS011;5414;59.782;16.378;2023-05-14T14:05:14;7.57;;;4.00;;
10725;SDS011;5414;59.782;16.378;2023-05-14T14:07:40;7.45;;;3.80;;
10725;SDS011;5414;59.782;16.378;2023-05-14T14:10:06;31.83;;;5.23;;
10725;SDS011;5414;59.782;16.378;2023-05-14T14:12:32;4.13;;;3.80;;
10725;SDS011;5414;59.782;16.378;2023-05-14T14:14:58;8.13;;;3.70;;
10725;SDS011;5414;59.782;16.378;2023-05-14T14:17:25;9.90;;;3.83;;
10725;SDS011;5414;59.782;16.378;2023-05-14T14:19:50;5.03;;;3.83;;
10725;SDS011;5414;59.782;16.378;2023-05-14T14:22:16;7.73;;;3.80;;
10725;SDS011;5414;59.782;16.378;2023-05-14T14:24:42;4.80;;;3.50;;
10725;SDS011;5414;59.782;16.378;2023-05-14T14:27:07;6.20;;;3.90;;
10725;SDS011;5414;59.782;16.378;2023-05-14T14:29:33;4.67;;;3.80;;
10725;SDS011;5414;59.782;16.378;2023-05-14T14:32:00;11.03;;;3.97;;
10725;SDS011;5414;59.782;16.378;2023-05-14T14:34:26;8.63;;;4.28;;
10725;SDS011;5414;59.782;16.378;2023-05-14T14:36:52;6.77;;;4.13;;
10725;SDS011;5414;59.782;16.378;2023-05-14T14:39:17;13.93;;;4.20;;
10725;SDS011;5414;59.782;16.378;2023-05-14T14:41:43;8.80;;;4.40;;
10725;SDS011;5414;59.782;16.378;2023-05-14T14:44:09;4.57;;;4.10;;
10725;SDS011;5414;59.782;16.378;2023-05-14T14:46:34;4.93;;;3.90;;
10725;SDS011;5414;59.782;16.378;2023-05-14T14:49:00;4.53;;;3.93;;
10725;SDS011;5414;59.782;16.378;2023-05-14T14:51:26;4.95;;;3.88;;
10725;SDS011;5414;59.782;16.378;2023-05-14T14:53:51;6.55;;;3.85;;